createdAt,value
2022-12-08T00:00:48.297Z,24.95
2022-12-08T00:02:50.330Z,23.98
2022-12-08T00:04:52.174Z,20.05
2022-12-08T00:06:53.873Z,23.42
2022-12-08T00:08:55.759Z,17.73
2022-12-08T00:10:57.486Z,24.33
2022-12-08T00:12:59.397Z,20.25
2022-12-08T00:15:01.460Z,18.45
2022-12-08T00:17:05.143Z,18.17
2022-12-08T00:21:08.897Z,21.38
2022-12-08T00:23:10.604Z,18.73
2022-12-08T00:25:12.477Z,18.42
2022-12-08T00:27:16.439Z,17.13
2022-12-08T00:29:18.590Z,24.17
2022-12-08T00:31:20.360Z,16.45
2022-12-08T00:33:22.105Z,20.85
2022-12-08T00:35:24.138Z,20.23
2022-12-08T00:37:26.004Z,21.83
2022-12-08T00:39:28.003Z,20.67
2022-12-08T00:41:29.695Z,16.52
2022-12-08T00:43:31.588Z,15.27
2022-12-08T00:45:33.364Z,20.00
2022-12-08T00:47:35.047Z,19.10
2022-12-08T00:49:36.866Z,13.77
2022-12-08T00:51:39.352Z,16.30
2022-12-08T00:53:41.031Z,19.13
2022-12-08T00:55:43.413Z,14.73
2022-12-08T00:57:45.244Z,16.98
2022-12-08T00:59:46.932Z,16.42
2022-12-08T01:01:49.344Z,17.23
2022-12-08T01:03:51.858Z,15.23
2022-12-08T01:05:53.596Z,17.02
2022-12-08T01:07:55.577Z,16.10
2022-12-08T01:09:57.761Z,11.68
2022-12-08T01:12:00.270Z,13.18
2022-12-08T01:14:02.175Z,11.77
2022-12-08T01:16:04.096Z,14.60
2022-12-08T01:18:05.845Z,11.60
2022-12-08T01:20:08.060Z,13.55
2022-12-08T01:22:09.987Z,14.40
2022-12-08T01:24:17.417Z,15.50
2022-12-08T01:26:19.977Z,10.98
2022-12-08T01:28:21.845Z,15.32
2022-12-08T01:30:23.535Z,13.57
2022-12-08T01:32:25.261Z,12.68
2022-12-08T01:34:27.230Z,13.32
2022-12-08T01:36:31.609Z,12.95
2022-12-08T01:38:33.824Z,12.25
2022-12-08T01:40:35.589Z,12.65
2022-12-08T01:42:37.293Z,13.18
2022-12-08T01:44:39.060Z,13.43
2022-12-08T01:46:43.053Z,11.32
2022-12-08T01:48:44.892Z,12.38
2022-12-08T01:50:48.643Z,13.35
2022-12-08T01:52:55.143Z,13.00
2022-12-08T01:55:02.845Z,11.88
2022-12-08T01:57:10.180Z,11.43
2022-12-08T01:59:12.535Z,7.93
2022-12-08T02:01:14.474Z,9.63
2022-12-08T02:03:27.492Z,13.60
2022-12-08T02:05:33.265Z,15.15
2022-12-08T02:07:36.247Z,10.45
2022-12-08T02:09:40.024Z,11.85
2022-12-08T02:11:41.785Z,11.68
2022-12-08T02:13:45.960Z,12.48
2022-12-08T02:16:09.456Z,11.63
2022-12-08T02:18:23.139Z,12.73
2022-12-08T02:20:37.985Z,15.02
2022-12-08T02:23:11.468Z,11.40
2022-12-08T02:25:24.840Z,13.20
2022-12-08T02:27:48.310Z,10.38
2022-12-08T02:30:08.203Z,14.77
2022-12-08T02:32:28.227Z,11.48
2022-12-08T02:34:39.371Z,11.80
2022-12-08T02:36:43.903Z,12.68
2022-12-08T02:39:00.679Z,11.88
2022-12-08T02:41:17.581Z,12.38
2022-12-08T02:43:28.363Z,10.77
2022-12-08T02:45:36.273Z,12.88
2022-12-08T02:47:38.511Z,11.40
2022-12-08T02:49:40.544Z,13.18
2022-12-08T02:51:43.056Z,14.32
2022-12-08T02:53:45.029Z,15.10
2022-12-08T02:56:25.490Z,11.93
2022-12-08T02:58:35.801Z,14.57
2022-12-08T03:00:48.916Z,14.73
2022-12-08T03:03:16.375Z,14.73
2022-12-08T03:05:28.288Z,13.88
2022-12-08T03:07:38.798Z,11.70
2022-12-08T03:09:56.335Z,12.52
2022-12-08T03:12:23.880Z,11.90
2022-12-08T03:14:26.279Z,13.60
2022-12-08T03:16:30.211Z,11.60
2022-12-08T03:18:35.707Z,12.43
2022-12-08T03:20:40.518Z,15.13
2022-12-08T03:22:44.572Z,11.90
2022-12-08T03:24:47.037Z,12.10
2022-12-08T03:26:51.929Z,14.30
2022-12-08T03:28:53.682Z,14.27
2022-12-08T03:30:59.597Z,13.63
2022-12-08T03:33:07.138Z,16.95
2022-12-08T03:35:14.557Z,13.38
2022-12-08T03:37:16.486Z,17.85
2022-12-08T03:39:18.512Z,13.95
2022-12-08T03:41:22.414Z,15.63
2022-12-08T03:43:24.378Z,13.65
2022-12-08T03:45:26.257Z,13.32
2022-12-08T03:47:27.949Z,13.45
2022-12-08T03:49:30.008Z,13.85
2022-12-08T03:51:31.847Z,12.73
2022-12-08T03:53:33.554Z,13.88
2022-12-08T03:55:35.333Z,12.68
2022-12-08T03:57:37.267Z,14.18
2022-12-08T03:59:38.969Z,14.57
2022-12-08T04:01:40.963Z,12.63
2022-12-08T04:03:42.662Z,13.45
2022-12-08T04:05:44.364Z,12.77
2022-12-08T04:07:46.384Z,15.32
2022-12-08T04:09:48.115Z,13.60
2022-12-08T04:11:49.888Z,13.68
2022-12-08T04:13:51.940Z,13.60
2022-12-08T04:15:53.866Z,13.95
2022-12-08T04:17:55.604Z,14.85
2022-12-08T04:19:57.774Z,13.52
2022-12-08T04:21:59.488Z,13.75
2022-12-08T04:24:01.677Z,15.80
2022-12-08T04:26:03.952Z,13.77
2022-12-08T04:28:06.281Z,12.48
2022-12-08T04:30:08.637Z,13.90
2022-12-08T04:32:10.537Z,13.73
2022-12-08T04:34:12.216Z,14.25
2022-12-08T04:36:13.892Z,12.35
2022-12-08T04:38:17.725Z,14.88
2022-12-08T04:40:19.710Z,12.38
2022-12-08T04:42:21.392Z,14.68
2022-12-08T04:44:23.474Z,15.10
2022-12-08T04:46:25.392Z,14.00
2022-12-08T04:48:27.200Z,15.00
2022-12-08T04:50:29.145Z,20.98
2022-12-08T04:52:30.878Z,15.70
2022-12-08T04:54:32.614Z,20.85
2022-12-08T04:56:34.792Z,20.88
2022-12-08T04:58:36.476Z,22.45
2022-12-08T05:00:38.168Z,66.90
2022-12-08T05:02:40.706Z,21.80
2022-12-08T05:04:42.602Z,55.95
2022-12-08T05:06:44.266Z,293.67
2022-12-08T05:08:46.363Z,127.00
2022-12-08T05:10:48.083Z,47.25
2022-12-08T05:12:49.817Z,87.57
2022-12-08T05:14:51.765Z,15.23
2022-12-08T05:16:53.553Z,183.77
2022-12-08T05:18:55.246Z,39.03
2022-12-08T05:20:57.077Z,24.48
2022-12-08T05:22:58.748Z,53.30
2022-12-08T05:25:00.496Z,98.35
2022-12-08T05:27:02.364Z,86.03
2022-12-08T05:29:04.234Z,46.60
2022-12-08T05:31:06.084Z,25.52
2022-12-08T05:33:07.926Z,14.98
2022-12-08T05:35:10.033Z,20.85
2022-12-08T05:37:11.736Z,16.33
2022-12-08T05:39:14.259Z,21.02
2022-12-08T05:41:19.744Z,18.58
2022-12-08T05:43:21.499Z,15.60
2022-12-08T05:45:23.904Z,15.98
2022-12-08T05:47:26.182Z,15.50
2022-12-08T05:49:27.867Z,15.07
2022-12-08T05:51:30.030Z,16.83
2022-12-08T05:53:31.730Z,15.90
2022-12-08T05:55:33.416Z,13.05
2022-12-08T05:57:35.914Z,12.50
2022-12-08T05:59:38.538Z,17.05
2022-12-08T06:01:40.298Z,15.88
2022-12-08T06:03:42.287Z,14.48
2022-12-08T06:05:45.889Z,23.52
2022-12-08T06:09:49.488Z,24.45
2022-12-08T06:11:51.182Z,16.92
2022-12-08T06:13:53.027Z,20.60
2022-12-08T06:15:55.200Z,16.67
2022-12-08T06:17:56.926Z,16.35
2022-12-08T06:19:58.595Z,16.88
2022-12-08T06:22:00.453Z,15.32
2022-12-08T06:24:02.196Z,15.82
2022-12-08T06:26:06.363Z,20.10
2022-12-08T06:28:08.235Z,16.83
2022-12-08T06:30:10.354Z,16.60
2022-12-08T06:32:12.122Z,20.08
2022-12-08T06:34:14.095Z,14.95
2022-12-08T06:36:18.024Z,16.02
2022-12-08T06:38:19.700Z,14.98
2022-12-08T06:40:21.667Z,15.30
2022-12-08T06:42:23.354Z,15.65
2022-12-08T06:44:25.031Z,14.88
2022-12-08T06:46:27.180Z,16.30
2022-12-08T06:48:28.917Z,17.25
2022-12-08T06:50:30.594Z,19.67
2022-12-08T06:52:32.515Z,17.25
2022-12-08T06:54:34.282Z,17.17
2022-12-08T06:56:35.946Z,14.82
2022-12-08T06:58:38.451Z,20.35
2022-12-08T07:00:41.739Z,20.75
2022-12-08T07:02:43.471Z,14.70
2022-12-08T07:04:45.416Z,16.17
2022-12-08T07:06:47.140Z,15.40
2022-12-08T07:08:48.842Z,20.63
2022-12-08T07:10:50.813Z,15.60
2022-12-08T07:12:52.537Z,17.73
2022-12-08T07:14:54.246Z,21.48
2022-12-08T07:16:56.267Z,18.73
2022-12-08T07:18:58.057Z,19.20
2022-12-08T07:21:07.280Z,20.70
2022-12-08T07:23:09.383Z,18.17
2022-12-08T07:25:11.082Z,20.27
2022-12-08T07:27:12.824Z,20.45
2022-12-08T07:29:14.881Z,17.55
2022-12-08T07:31:22.279Z,19.58
2022-12-08T07:33:24.023Z,18.15
2022-12-08T07:35:25.951Z,16.13
2022-12-08T07:37:27.661Z,16.23
2022-12-08T07:39:29.323Z,18.63
2022-12-08T07:41:31.408Z,22.25
2022-12-08T07:43:33.118Z,22.67
2022-12-08T07:45:34.790Z,41.80
2022-12-08T07:47:36.866Z,31.65
2022-12-08T07:49:38.612Z,30.48
2022-12-08T07:51:40.341Z,18.63
2022-12-08T07:53:48.388Z,18.98
2022-12-08T07:55:53.492Z,19.77
2022-12-08T07:57:55.290Z,28.52
2022-12-08T07:59:57.364Z,62.92
2022-12-08T08:02:22.234Z,40.08
2022-12-08T08:04:20.762Z,26.75
2022-12-08T08:06:23.166Z,28.00
2022-12-08T08:08:24.936Z,27.45
2022-12-08T08:10:26.757Z,24.08
2022-12-08T08:12:31.641Z,22.50
2022-12-08T08:14:34.172Z,25.77
2022-12-08T08:16:38.626Z,34.35
2022-12-08T08:18:41.572Z,27.75
2022-12-08T08:20:43.256Z,66.28
2022-12-08T08:22:51.494Z,56.90
2022-12-08T08:24:54.299Z,55.53
2022-12-08T08:26:56.012Z,28.02
2022-12-08T08:28:57.680Z,21.08
2022-12-08T08:31:00.732Z,33.75
2022-12-08T08:33:02.462Z,52.65
2022-12-08T08:35:04.962Z,31.38
2022-12-08T08:37:06.977Z,47.30
2022-12-08T08:39:08.672Z,31.65
2022-12-08T08:41:11.779Z,53.70
2022-12-08T08:43:13.839Z,66.53
2022-12-08T08:45:15.552Z,23.33
2022-12-08T08:47:17.264Z,83.53
2022-12-08T08:49:19.250Z,62.53
2022-12-08T08:51:20.952Z,36.92
2022-12-08T08:53:23.300Z,118.82
2022-12-08T08:55:25.092Z,53.40
2022-12-08T08:57:26.785Z,41.28
2022-12-08T08:59:28.885Z,45.20
2022-12-08T09:01:30.862Z,34.83
2022-12-08T09:03:32.643Z,29.33
2022-12-08T09:05:34.450Z,21.60
2022-12-08T09:07:36.484Z,29.83
2022-12-08T09:09:38.777Z,27.02
2022-12-08T09:11:40.686Z,22.52
2022-12-08T09:13:42.896Z,22.10
2022-12-08T09:15:44.649Z,19.83
2022-12-08T09:17:46.423Z,26.52
2022-12-08T09:19:48.406Z,25.25
2022-12-08T09:21:50.105Z,22.83
2022-12-08T09:23:55.256Z,24.35
2022-12-08T09:25:57.495Z,19.50
2022-12-08T09:27:59.183Z,20.33
2022-12-08T09:30:01.072Z,18.63
2022-12-08T09:32:03.240Z,26.60
2022-12-08T09:34:05.518Z,22.60
2022-12-08T09:36:07.761Z,21.63
2022-12-08T09:38:09.704Z,26.92
2022-12-08T09:40:17.400Z,22.30
2022-12-08T09:42:40.852Z,24.85
2022-12-08T09:45:09.228Z,20.67
2022-12-08T09:47:30.614Z,16.88
2022-12-08T09:49:53.152Z,19.05
2022-12-08T09:51:55.390Z,22.40
2022-12-08T09:54:03.395Z,20.15
2022-12-08T09:56:17.599Z,24.35
2022-12-08T09:58:31.447Z,21.42
2022-12-08T10:00:34.270Z,22.08
2022-12-08T10:02:36.117Z,18.93
2022-12-08T10:04:38.842Z,19.40
2022-12-08T10:06:43.520Z,25.67
2022-12-08T10:09:17.212Z,22.15
2022-12-08T10:11:31.336Z,21.33
2022-12-08T10:13:44.727Z,21.85
2022-12-08T10:16:25.412Z,20.23
2022-12-08T10:18:33.994Z,21.38
2022-12-08T10:20:41.903Z,19.20
2022-12-08T10:22:46.214Z,40.50
2022-12-08T10:24:53.929Z,28.58
2022-12-08T10:26:56.303Z,33.45
2022-12-08T10:28:58.103Z,30.25
2022-12-08T10:31:00.255Z,25.15
2022-12-08T10:33:02.160Z,20.65
2022-12-08T10:35:07.831Z,21.52
2022-12-08T10:37:10.467Z,34.13
2022-12-08T10:39:29.869Z,21.02
2022-12-08T10:41:31.574Z,23.23
2022-12-08T10:43:34.662Z,23.50
2022-12-08T10:45:40.880Z,27.50
2022-12-08T10:47:45.359Z,23.77
2022-12-08T10:49:47.827Z,27.38
2022-12-08T10:51:49.748Z,26.15
2022-12-08T10:53:51.460Z,31.38
2022-12-08T10:56:07.084Z,32.90
2022-12-08T10:58:34.038Z,31.77
2022-12-08T11:00:39.453Z,34.53
2022-12-08T11:02:53.536Z,37.25
2022-12-08T11:06:59.584Z,34.97
2022-12-08T11:09:04.879Z,41.55
2022-12-08T11:11:06.617Z,39.45
2022-12-08T11:13:23.638Z,34.13
2022-12-08T11:15:25.811Z,42.53
2022-12-08T11:17:29.045Z,36.47
2022-12-08T11:19:30.795Z,45.97
2022-12-08T11:21:41.518Z,36.60
2022-12-08T11:23:48.356Z,34.78
2022-12-08T11:25:51.754Z,39.33
2022-12-08T11:27:58.987Z,40.92
2022-12-08T11:30:02.237Z,39.22
2022-12-08T11:32:12.745Z,37.50
2022-12-08T11:34:27.285Z,41.67
2022-12-08T11:36:32.196Z,38.95
2022-12-08T11:38:34.504Z,37.65
2022-12-08T11:40:39.157Z,41.72
2022-12-08T11:43:06.491Z,43.13
2022-12-08T11:45:14.803Z,36.97
2022-12-08T11:47:35.398Z,40.55
2022-12-08T11:49:39.975Z,40.90
2022-12-08T11:51:50.431Z,42.85
2022-12-08T11:54:26.241Z,43.28
2022-12-08T11:56:38.239Z,37.25
2022-12-08T11:58:54.019Z,47.20
2022-12-08T12:00:55.861Z,44.40
2022-12-08T12:03:11.575Z,43.58
2022-12-08T12:06:08.609Z,41.40
2022-12-08T12:08:25.369Z,53.60
2022-12-08T12:10:48.470Z,51.63
2022-12-08T12:13:11.782Z,51.30
2022-12-08T12:15:44.511Z,54.65
2022-12-08T12:18:23.944Z,47.03
2022-12-08T12:20:33.586Z,56.22
2022-12-08T12:22:37.852Z,48.17
2022-12-08T12:24:40.265Z,47.30
2022-12-08T12:27:14.052Z,44.78
2022-12-08T12:29:21.789Z,45.65
2022-12-08T12:31:27.752Z,63.20
2022-12-08T12:33:33.183Z,61.53
2022-12-08T12:35:41.229Z,56.80
2022-12-08T12:37:43.483Z,53.47
2022-12-08T12:40:02.657Z,48.42
2022-12-08T12:42:05.259Z,80.40
2022-12-08T12:44:11.917Z,79.38
2022-12-08T12:46:53.390Z,123.82
2022-12-08T12:49:33.444Z,199.98
2022-12-08T12:51:57.927Z,54.78
2022-12-08T12:54:23.810Z,45.65
2022-12-08T12:56:50.230Z,52.88
2022-12-08T12:58:54.238Z,61.42
2022-12-08T13:01:11.370Z,51.60
2022-12-08T13:03:17.808Z,56.20
2022-12-08T13:05:26.317Z,40.22
2022-12-08T13:07:31.964Z,47.22
2022-12-08T13:09:39.343Z,40.60
2022-12-08T13:11:54.025Z,39.72
2022-12-08T13:14:05.307Z,41.22
2022-12-08T13:16:18.513Z,39.83
2022-12-08T13:20:57.382Z,37.25
2022-12-08T13:23:13.357Z,49.53
2022-12-08T13:25:40.025Z,42.60
2022-12-08T13:27:52.885Z,39.13
2022-12-08T13:30:41.194Z,39.17
2022-12-08T13:35:20.871Z,38.53
2022-12-08T13:37:29.807Z,36.50
2022-12-08T13:39:40.621Z,34.60
2022-12-08T13:41:48.391Z,31.73
2022-12-08T13:44:50.882Z,31.95
2022-12-08T13:53:22.348Z,34.78
2022-12-08T13:57:05.592Z,33.42
2022-12-08T13:59:25.528Z,35.10
2022-12-08T14:01:27.666Z,32.67
2022-12-08T14:03:29.788Z,34.65
2022-12-08T14:06:11.209Z,35.90
2022-12-08T14:08:03.822Z,33.40
2022-12-08T14:10:15.920Z,31.90
2022-12-08T14:12:22.201Z,31.98
2022-12-08T14:14:53.904Z,45.60
2022-12-08T14:17:01.521Z,35.28
2022-12-08T14:21:20.843Z,62.28
2022-12-08T14:23:23.210Z,49.85
2022-12-08T14:25:26.899Z,54.47
2022-12-08T14:29:45.482Z,35.28
2022-12-08T14:31:47.376Z,40.75
2022-12-08T14:33:53.324Z,35.75
2022-12-08T14:35:58.437Z,40.80
2022-12-08T14:38:02.416Z,36.47
2022-12-08T14:40:22.974Z,33.88
2022-12-08T14:42:27.372Z,37.47
2022-12-08T14:44:32.984Z,34.72
2022-12-08T14:46:34.752Z,35.28
2022-12-08T14:48:36.481Z,37.60
2022-12-08T14:50:54.985Z,35.22
2022-12-08T14:52:56.808Z,36.78
2022-12-08T14:54:59.004Z,37.22
2022-12-08T14:57:02.583Z,35.90
2022-12-08T15:01:23.854Z,44.72
2022-12-08T15:03:29.359Z,48.85
2022-12-08T15:05:32.585Z,57.45
2022-12-08T15:07:46.250Z,55.97
2022-12-08T15:10:18.509Z,137.02
2022-12-08T15:12:27.055Z,165.02
2022-12-08T15:14:35.840Z,126.38
2022-12-08T15:16:42.872Z,96.25
2022-12-08T15:18:44.815Z,134.18
2022-12-08T15:20:49.114Z,62.47
2022-12-08T15:22:51.408Z,94.15
2022-12-08T15:24:54.117Z,118.07
2022-12-08T15:26:56.305Z,112.60
2022-12-08T15:28:58.038Z,105.20
2022-12-08T15:30:59.893Z,92.88
2022-12-08T15:33:01.815Z,153.45
2022-12-08T15:35:03.615Z,136.00
2022-12-08T15:37:18.694Z,181.50
2022-12-08T15:39:36.335Z,138.00
2022-12-08T15:41:38.017Z,113.38
2022-12-08T15:43:40.094Z,89.45
2022-12-08T15:45:48.110Z,158.63
2022-12-08T15:47:56.873Z,215.70
2022-12-08T15:49:58.591Z,160.27
2022-12-08T15:52:11.191Z,142.02
2022-12-08T15:54:14.408Z,99.07
2022-12-08T15:56:27.379Z,132.80
2022-12-08T16:00:54.428Z,95.65
2022-12-08T16:05:42.313Z,172.82
2022-12-08T16:07:40.486Z,175.45
2022-12-08T16:09:44.078Z,181.23
2022-12-08T16:14:54.689Z,169.07
2022-12-08T16:16:30.588Z,122.18
2022-12-08T16:18:36.499Z,103.35
2022-12-08T16:21:05.958Z,88.57
2022-12-08T16:23:13.471Z,75.85
2022-12-08T16:25:23.390Z,169.82
2022-12-08T16:28:00.063Z,158.43
2022-12-08T16:29:51.346Z,172.75
2022-12-08T16:31:53.176Z,89.85
2022-12-08T16:33:55.032Z,94.18
2022-12-08T16:35:57.050Z,100.00
2022-12-08T16:37:58.991Z,95.10
2022-12-08T16:40:01.071Z,129.32
2022-12-08T16:42:02.828Z,139.25
2022-12-08T16:44:05.654Z,131.68
2022-12-08T16:46:17.342Z,104.90
2022-12-08T16:48:19.043Z,123.72
2022-12-08T16:50:24.328Z,91.95
2022-12-08T16:52:26.091Z,84.00
2022-12-08T16:54:29.442Z,87.00
2022-12-08T16:56:33.536Z,111.20
2022-12-08T16:58:35.580Z,394.90
2022-12-08T17:00:37.489Z,512.92
2022-12-08T17:02:39.378Z,488.88
2022-12-08T17:04:41.409Z,407.42
2022-12-08T17:06:43.126Z,291.20
2022-12-08T17:08:45.660Z,356.08
2022-12-08T17:10:47.391Z,300.75
2022-12-08T17:12:50.168Z,243.25
2022-12-08T17:14:52.105Z,251.60
2022-12-08T17:16:54.093Z,305.35
2022-12-08T17:18:55.968Z,240.13
2022-12-08T17:20:57.779Z,163.00
2022-12-08T17:22:59.496Z,157.10
2022-12-08T17:25:02.527Z,123.57
2022-12-08T17:27:05.045Z,344.48
2022-12-08T17:29:06.736Z,241.77
2022-12-08T17:31:14.492Z,241.05
2022-12-08T17:33:16.391Z,235.75
2022-12-08T17:35:18.104Z,172.90
2022-12-08T17:37:19.791Z,272.17
2022-12-08T17:39:21.706Z,266.35
2022-12-08T17:41:23.429Z,136.90
2022-12-08T17:43:25.097Z,223.00
2022-12-08T17:45:27.100Z,160.52
2022-12-08T17:47:28.876Z,215.68
2022-12-08T17:49:31.472Z,141.02
2022-12-08T17:51:33.635Z,181.95
2022-12-08T17:53:37.544Z,176.55
2022-12-08T17:55:40.225Z,192.43
2022-12-08T17:57:42.084Z,196.40
2022-12-08T17:59:43.805Z,223.95
2022-12-08T18:01:45.660Z,209.05
2022-12-08T18:03:47.650Z,162.93
2022-12-08T18:05:49.370Z,184.57
2022-12-08T18:07:51.603Z,226.93
2022-12-08T18:09:53.550Z,197.80
2022-12-08T18:11:55.281Z,169.85
2022-12-08T18:13:57.557Z,302.00
2022-12-08T18:15:59.396Z,269.75
2022-12-08T18:18:01.090Z,575.22
2022-12-08T18:20:03.061Z,129.45
2022-12-08T18:22:05.250Z,123.47
2022-12-08T18:24:07.954Z,120.38
2022-12-08T18:26:12.343Z,114.80
2022-12-08T18:28:14.210Z,94.55
2022-12-08T18:30:17.843Z,76.10
2022-12-08T18:34:21.296Z,79.38
2022-12-08T18:36:25.878Z,148.13
2022-12-08T18:38:27.571Z,69.10
2022-12-08T18:40:29.614Z,80.05
2022-12-08T18:42:31.321Z,102.20
2022-12-08T18:44:33.070Z,87.28
2022-12-08T18:46:35.012Z,90.60
2022-12-08T18:48:39.268Z,90.15
2022-12-08T18:50:41.776Z,106.63
2022-12-08T18:52:45.379Z,128.38
2022-12-08T18:57:08.352Z,114.75
2022-12-08T18:59:12.319Z,119.63
2022-12-08T19:01:14.905Z,164.55
2022-12-08T19:03:16.619Z,136.57
2022-12-08T19:05:18.496Z,176.45
2022-12-08T19:07:20.206Z,135.15
2022-12-08T19:09:21.969Z,151.55
2022-12-08T19:11:30.732Z,107.78
2022-12-08T19:13:32.665Z,93.57
2022-12-08T19:15:34.857Z,117.65
2022-12-08T19:17:37.157Z,70.65
2022-12-08T19:19:38.825Z,73.97
2022-12-08T19:21:46.136Z,69.32
2022-12-08T19:23:48.520Z,94.25
2022-12-08T19:25:50.285Z,68.05
2022-12-08T19:27:52.018Z,77.72
2022-12-08T19:29:53.864Z,90.20
2022-12-08T19:31:55.812Z,83.07
2022-12-08T19:33:57.605Z,72.75
2022-12-08T19:35:59.845Z,72.85
2022-12-08T19:38:01.563Z,139.93
2022-12-08T19:40:04.147Z,174.52
2022-12-08T19:42:26.490Z,154.97
2022-12-08T19:44:29.018Z,201.82
2022-12-08T19:46:33.574Z,79.90
2022-12-08T19:48:38.045Z,76.68
2022-12-08T19:50:40.160Z,58.72
2022-12-08T19:52:42.265Z,79.22
2022-12-08T19:54:44.525Z,69.00
2022-12-08T19:56:46.274Z,82.53
2022-12-08T19:58:48.008Z,136.40
2022-12-08T20:00:50.171Z,212.65
2022-12-08T20:02:52.275Z,214.18
2022-12-08T20:04:54.014Z,83.88
2022-12-08T20:06:57.603Z,94.70
2022-12-08T20:11:00.916Z,98.10
2022-12-08T20:13:03.678Z,74.78
2022-12-08T20:15:06.080Z,113.33
2022-12-08T20:17:08.494Z,90.38
2022-12-08T20:19:10.647Z,82.15
2022-12-08T20:21:12.459Z,96.07
2022-12-08T20:23:15.623Z,96.88
2022-12-08T20:25:17.707Z,167.52
2022-12-08T20:27:19.687Z,136.85
2022-12-08T20:29:21.507Z,135.27
2022-12-08T20:31:28.554Z,141.23
2022-12-08T20:33:30.342Z,184.23
2022-12-08T20:35:32.066Z,228.65
2022-12-08T20:37:33.765Z,147.18
2022-12-08T20:39:35.510Z,200.73
2022-12-08T20:41:39.311Z,178.88
2022-12-08T20:43:41.270Z,103.15
2022-12-08T20:45:43.142Z,65.88
2022-12-08T20:47:44.848Z,93.75
2022-12-08T20:49:47.782Z,60.90
2022-12-08T20:51:49.603Z,121.18
2022-12-08T20:53:51.305Z,105.85
2022-12-08T20:55:53.650Z,72.10
2022-12-08T20:57:55.675Z,154.30
2022-12-08T20:59:57.368Z,235.35
2022-12-08T21:01:59.730Z,181.45
2022-12-08T21:04:01.709Z,175.55
2022-12-08T21:06:03.837Z,141.13
2022-12-08T21:08:08.543Z,92.18
2022-12-08T21:10:11.008Z,125.70
2022-12-08T21:12:19.342Z,117.25
2022-12-08T21:14:21.386Z,97.78
2022-12-08T21:16:23.356Z,80.97
2022-12-08T21:18:25.709Z,99.20
2022-12-08T21:20:27.756Z,79.45
2022-12-08T21:22:29.490Z,81.88
2022-12-08T21:24:34.352Z,71.85
2022-12-08T21:26:36.641Z,82.43
2022-12-08T21:28:38.512Z,85.55
2022-12-08T21:30:41.212Z,101.05
2022-12-08T21:32:43.108Z,95.07
2022-12-08T21:34:45.262Z,103.45
2022-12-08T21:36:47.019Z,119.03
2022-12-08T21:38:49.353Z,119.80
2022-12-08T21:40:51.090Z,103.97
2022-12-08T21:42:53.370Z,117.18
2022-12-08T21:44:55.165Z,109.25
2022-12-08T21:46:57.110Z,113.38
2022-12-08T21:48:59.023Z,117.65
2022-12-08T21:51:05.403Z,101.15
2022-12-08T21:53:07.395Z,85.80
2022-12-08T21:55:11.024Z,105.47
2022-12-08T21:59:15.802Z,131.90
2022-12-08T22:01:17.646Z,145.75
2022-12-08T22:03:20.119Z,99.60
2022-12-08T22:05:22.110Z,92.78
2022-12-08T22:07:24.105Z,75.82
2022-12-08T22:09:26.171Z,79.18
2022-12-08T22:11:28.307Z,78.10
2022-12-08T22:13:30.053Z,89.05
2022-12-08T22:15:31.982Z,93.32
2022-12-08T22:17:41.777Z,78.30
2022-12-08T22:19:43.664Z,80.13
2022-12-08T22:21:45.546Z,85.72
2022-12-08T22:23:47.494Z,78.90
2022-12-08T22:25:57.242Z,75.28
2022-12-08T22:27:59.018Z,73.53
2022-12-08T22:30:00.891Z,88.80
2022-12-08T22:32:02.949Z,84.03
2022-12-08T22:34:04.875Z,100.07
2022-12-08T22:36:11.024Z,107.78
2022-12-08T22:38:13.020Z,114.00
2022-12-08T22:40:14.992Z,108.68
2022-12-08T22:42:16.825Z,75.75
2022-12-08T22:44:18.558Z,72.63
2022-12-08T22:46:25.657Z,75.55
2022-12-08T22:48:27.661Z,99.63
2022-12-08T22:50:29.400Z,61.22
2022-12-08T22:52:31.581Z,87.10
2022-12-08T22:54:33.397Z,91.63
2022-12-08T22:56:35.179Z,77.47
2022-12-08T22:58:38.610Z,60.17
2022-12-08T23:00:40.556Z,74.03
2022-12-08T23:02:42.369Z,57.22
2022-12-08T23:04:44.739Z,72.63
2022-12-08T23:06:46.726Z,91.80
2022-12-08T23:08:48.478Z,80.28
2022-12-08T23:10:52.796Z,81.63
2022-12-08T23:12:56.808Z,83.22
2022-12-08T23:15:01.444Z,86.20
2022-12-08T23:17:03.672Z,95.05
2022-12-08T23:19:05.908Z,81.13
2022-12-08T23:21:13.534Z,83.68
2022-12-08T23:23:15.549Z,91.63
2022-12-08T23:25:17.521Z,94.72
2022-12-08T23:27:19.225Z,83.20
2022-12-08T23:31:40.425Z,70.65
2022-12-08T23:33:42.700Z,84.07
2022-12-08T23:35:44.795Z,91.18
2022-12-08T23:37:46.590Z,92.55
2022-12-08T23:39:48.463Z,81.07
2022-12-08T23:41:51.182Z,79.78
2022-12-08T23:43:53.301Z,79.70
2022-12-08T23:45:55.186Z,73.88
2022-12-08T23:47:56.978Z,65.07
2022-12-08T23:49:59.026Z,68.95
2022-12-08T23:52:00.809Z,65.82
2022-12-08T23:54:06.140Z,63.70
2022-12-08T23:56:11.193Z,63.42
2022-12-08T23:58:12.979Z,84.65
